CEB981 RPLL-RPMD
Flight info
| Callsign | CEB981 |
|---|---|
| Flight time | N/A |
| Altitude | 39000 |
| Route | IPATA2V IPATA B462 MASBA W9A BN W9 RIMAR RIMAR2R |
| Aircraft | A20N/M-SDE2E3FGHIRWXY/LB1 |
Departure
| Time | 2026-05-01 14:25 |
|---|---|
| Airport | Ninoy Aquino International Airport (RPLL) |
Arrival
| Time | N/A |
|---|---|
| Airport | Francisco Bangoy International Airport (RPMD) |
| Time | Latitude | Longitude | Altitude | Speed | Heading |
|---|---|---|---|---|---|
| 2026-05-01 14:09 | 14.52338 | 121.00788 | 84 ft | 0 kts | 44° |
| 2026-05-01 14:16 | 14.52337 | 121.00787 | 84 ft | 1 kts | 44° |
| 2026-05-01 14:16 | 14.52327 | 121.00775 | 84 ft | 2 kts | 63° |
| 2026-05-01 14:17 | 14.52322 | 121.00761 | 84 ft | 2 kts | 77° |
| 2026-05-01 14:17 | 14.52320 | 121.00746 | 84 ft | 2 kts | 93° |
| 2026-05-01 14:17 | 14.52318 | 121.00732 | 84 ft | 2 kts | 49° |
| 2026-05-01 14:17 | 14.52305 | 121.00724 | 84 ft | 2 kts | 6° |
| 2026-05-01 14:18 | 14.52290 | 121.00727 | 84 ft | 1 kts | 322° |
| 2026-05-01 14:18 | 14.52285 | 121.00732 | 84 ft | 0 kts | 307° |
| 2026-05-01 14:20 | 14.52286 | 121.00732 | 84 ft | 0 kts | 317° |
| 2026-05-01 14:21 | 14.52288 | 121.00729 | 84 ft | 1 kts | 315° |
| 2026-05-01 14:21 | 14.52300 | 121.00716 | 83 ft | 2 kts | 314° |
| 2026-05-01 14:22 | 14.52339 | 121.00677 | 84 ft | 4 kts | 315° |
| 2026-05-01 14:22 | 14.52365 | 121.00649 | 84 ft | 5 kts | 315° |
| 2026-05-01 14:22 | 14.52395 | 121.00619 | 84 ft | 6 kts | 315° |
| 2026-05-01 14:22 | 14.52430 | 121.00583 | 84 ft | 7 kts | 315° |
| 2026-05-01 14:23 | 14.52468 | 121.00543 | 84 ft | 8 kts | 315° |
| 2026-05-01 14:23 | 14.52497 | 121.00492 | 84 ft | 8 kts | 264° |
| 2026-05-01 14:23 | 14.52462 | 121.00441 | 84 ft | 9 kts | 225° |
| 2026-05-01 14:23 | 14.52415 | 121.00397 | 83 ft | 8 kts | 207° |
| 2026-05-01 14:24 | 14.52363 | 121.00404 | 83 ft | 8 kts | 136° |
| 2026-05-01 14:24 | 14.52325 | 121.00446 | 84 ft | 7 kts | 134° |
| 2026-05-01 14:24 | 14.52257 | 121.00516 | 84 ft | 37 kts | 135° |
| 2026-05-01 14:24 | 14.51889 | 121.00899 | 84 ft | 110 kts | 135° |
| 2026-05-01 14:25 | 14.51205 | 121.01613 | 157 ft | 158 kts | 134° |
| 2026-05-01 14:25 | 14.50427 | 121.02413 | 785 ft | 159 kts | 136° |
| 2026-05-01 14:25 | 14.49628 | 121.03187 | 1477 ft | 160 kts | 136° |
| 2026-05-01 14:25 | 14.48823 | 121.03973 | 2065 ft | 163 kts | 136° |
| 2026-05-01 14:26 | 14.47968 | 121.04825 | 2428 ft | 181 kts | 136° |
| 2026-05-01 14:26 | 14.45965 | 121.06847 | 3165 ft | 222 kts | 135° |
| 2026-05-01 14:26 | 14.44792 | 121.08035 | 3598 ft | 244 kts | 135° |
| 2026-05-01 14:27 | 14.43554 | 121.09290 | 4139 ft | 261 kts | 135° |
| 2026-05-01 14:27 | 14.42240 | 121.10621 | 4881 ft | 269 kts | 135° |
| 2026-05-01 14:27 | 14.40906 | 121.11972 | 5765 ft | 271 kts | 135° |
| 2026-05-01 14:28 | 14.38188 | 121.14726 | 7465 ft | 278 kts | 135° |
| 2026-05-01 14:28 | 14.36814 | 121.16117 | 8289 ft | 281 kts | 135° |
| 2026-05-01 14:28 | 14.35419 | 121.17530 | 9099 ft | 284 kts | 135° |
| 2026-05-01 14:28 | 14.34008 | 121.18958 | 9892 ft | 288 kts | 135° |
| 2026-05-01 14:29 | 14.32578 | 121.20406 | 10615 ft | 293 kts | 135° |
| 2026-05-01 14:29 | 14.31137 | 121.21973 | 11057 ft | 308 kts | 129° |
| 2026-05-01 14:30 | 14.27159 | 121.27398 | 13212 ft | 321 kts | 127° |
| 2026-05-01 14:30 | 14.25810 | 121.29233 | 13915 ft | 324 kts | 127° |
| 2026-05-01 14:30 | 14.24442 | 121.31078 | 14607 ft | 328 kts | 127° |
| 2026-05-01 14:31 | 14.21646 | 121.34822 | 15948 ft | 334 kts | 127° |
| 2026-05-01 14:31 | 14.20216 | 121.36729 | 16600 ft | 337 kts | 127° |
| 2026-05-01 14:31 | 14.18773 | 121.38653 | 17235 ft | 341 kts | 128° |
| 2026-05-01 14:31 | 14.17337 | 121.40565 | 17846 ft | 344 kts | 128° |
| 2026-05-01 14:32 | 14.15858 | 121.42532 | 18453 ft | 347 kts | 128° |
| 2026-05-01 14:32 | 14.14381 | 121.44496 | 19038 ft | 350 kts | 128° |
| 2026-05-01 14:32 | 14.12880 | 121.46492 | 19614 ft | 353 kts | 128° |
| 2026-05-01 14:32 | 14.11373 | 121.48495 | 20181 ft | 356 kts | 128° |
| 2026-05-01 14:33 | 14.09845 | 121.50526 | 20743 ft | 360 kts | 128° |
| 2026-05-01 14:33 | 14.08308 | 121.52567 | 21296 ft | 363 kts | 128° |
| 2026-05-01 14:33 | 14.06747 | 121.54640 | 21843 ft | 366 kts | 128° |
| 2026-05-01 14:33 | 14.05202 | 121.56692 | 22372 ft | 369 kts | 128° |
| 2026-05-01 14:34 | 14.03620 | 121.58791 | 22899 ft | 372 kts | 128° |
| 2026-05-01 14:34 | 14.02063 | 121.60858 | 23406 ft | 375 kts | 128° |
| 2026-05-01 14:34 | 14.00445 | 121.63004 | 23919 ft | 377 kts | 128° |
| 2026-05-01 14:34 | 13.98829 | 121.65147 | 24409 ft | 380 kts | 128° |
| 2026-05-01 14:35 | 13.97139 | 121.67386 | 24905 ft | 383 kts | 128° |
| 2026-05-01 14:35 | 13.95478 | 121.69587 | 25379 ft | 386 kts | 128° |
| 2026-05-01 14:35 | 13.93822 | 121.71781 | 25835 ft | 389 kts | 128° |
| 2026-05-01 14:35 | 13.92153 | 121.73991 | 26280 ft | 392 kts | 128° |
| 2026-05-01 14:36 | 13.90468 | 121.76220 | 26716 ft | 395 kts | 128° |
| 2026-05-01 14:36 | 13.88784 | 121.78450 | 27138 ft | 397 kts | 128° |
| 2026-05-01 14:36 | 13.87134 | 121.80635 | 27536 ft | 400 kts | 128° |
| 2026-05-01 14:36 | 13.85329 | 121.82909 | 27939 ft | 402 kts | 130° |
| 2026-05-01 14:37 | 13.83525 | 121.85129 | 28321 ft | 405 kts | 130° |
| 2026-05-01 14:37 | 13.81703 | 121.87362 | 28687 ft | 407 kts | 130° |
| 2026-05-01 14:37 | 13.79879 | 121.89597 | 29035 ft | 409 kts | 130° |
| 2026-05-01 14:37 | 13.78027 | 121.91865 | 29372 ft | 411 kts | 130° |
| 2026-05-01 14:38 | 13.76209 | 121.94092 | 29690 ft | 414 kts | 130° |
| 2026-05-01 14:38 | 13.74355 | 121.96363 | 30001 ft | 416 kts | 130° |
| 2026-05-01 14:38 | 13.72488 | 121.98650 | 30301 ft | 418 kts | 130° |
| 2026-05-01 14:38 | 13.70590 | 122.00973 | 30592 ft | 420 kts | 130° |
| 2026-05-01 14:39 | 13.68726 | 122.03255 | 30867 ft | 421 kts | 130° |
| 2026-05-01 14:39 | 13.66829 | 122.05575 | 31134 ft | 423 kts | 130° |
| 2026-05-01 14:39 | 13.64913 | 122.07918 | 31395 ft | 425 kts | 130° |
| 2026-05-01 14:39 | 13.63018 | 122.10236 | 31645 ft | 427 kts | 130° |
| 2026-05-01 14:40 | 13.61118 | 122.12560 | 31890 ft | 428 kts | 130° |
| 2026-05-01 14:40 | 13.59188 | 122.14919 | 32133 ft | 430 kts | 130° |
| 2026-05-01 14:40 | 13.57265 | 122.17268 | 32362 ft | 432 kts | 130° |
| 2026-05-01 14:40 | 13.55332 | 122.19630 | 32586 ft | 433 kts | 130° |
| 2026-05-01 14:41 | 13.53379 | 122.22015 | 32806 ft | 435 kts | 130° |
| 2026-05-01 14:41 | 13.51422 | 122.24404 | 33019 ft | 436 kts | 130° |
| 2026-05-01 14:41 | 13.49478 | 122.26778 | 33224 ft | 438 kts | 130° |
| 2026-05-01 14:41 | 13.47499 | 122.29192 | 33426 ft | 439 kts | 130° |
| 2026-05-01 14:42 | 13.45528 | 122.31596 | 33619 ft | 440 kts | 130° |
| 2026-05-01 14:42 | 13.43541 | 122.34019 | 33805 ft | 442 kts | 130° |
| 2026-05-01 14:42 | 13.41562 | 122.36433 | 33982 ft | 443 kts | 130° |
| 2026-05-01 14:42 | 13.39565 | 122.38866 | 34171 ft | 444 kts | 130° |
| 2026-05-01 14:43 | 13.37575 | 122.41292 | 34404 ft | 443 kts | 130° |
| 2026-05-01 14:43 | 13.35593 | 122.43707 | 34645 ft | 442 kts | 130° |
| 2026-05-01 14:43 | 13.33622 | 122.46107 | 34872 ft | 442 kts | 130° |
| 2026-05-01 14:43 | 13.31630 | 122.48531 | 35092 ft | 441 kts | 130° |
| 2026-05-01 14:44 | 13.29641 | 122.50953 | 35305 ft | 441 kts | 130° |
| 2026-05-01 14:44 | 13.25691 | 122.55759 | 35708 ft | 440 kts | 130° |
| 2026-05-01 14:44 | 13.23729 | 122.58144 | 35900 ft | 440 kts | 130° |
| 2026-05-01 14:45 | 13.21744 | 122.60558 | 36088 ft | 439 kts | 130° |
| 2026-05-01 14:45 | 13.17794 | 122.65358 | 36436 ft | 439 kts | 130° |
| 2026-05-01 14:45 | 13.15801 | 122.67778 | 36597 ft | 439 kts | 130° |
| 2026-05-01 14:46 | 13.13831 | 122.70171 | 36750 ft | 439 kts | 130° |
| 2026-05-01 14:46 | 13.09905 | 122.74936 | 37042 ft | 439 kts | 130° |
| 2026-05-01 14:46 | 13.07917 | 122.77349 | 37183 ft | 439 kts | 130° |
| 2026-05-01 14:47 | 13.05955 | 122.79729 | 37319 ft | 439 kts | 130° |
| 2026-05-01 14:47 | 13.03972 | 122.82134 | 37453 ft | 439 kts | 130° |
| 2026-05-01 14:47 | 13.02008 | 122.84515 | 37581 ft | 439 kts | 130° |
| 2026-05-01 14:48 | 12.98073 | 122.89284 | 37828 ft | 438 kts | 130° |
| 2026-05-01 14:48 | 12.96078 | 122.91701 | 37947 ft | 438 kts | 130° |
| 2026-05-01 14:48 | 12.92145 | 122.96464 | 38170 ft | 438 kts | 130° |
| 2026-05-01 14:49 | 12.88149 | 123.01300 | 38389 ft | 438 kts | 130° |
| 2026-05-01 14:49 | 12.84008 | 123.06309 | 38601 ft | 438 kts | 130° |
| 2026-05-01 14:50 | 12.81392 | 123.09471 | 38728 ft | 438 kts | 130° |
| 2026-05-01 14:50 | 12.76091 | 123.15877 | 38969 ft | 438 kts | 130° |
| 2026-05-01 14:51 | 12.70936 | 123.22102 | 39013 ft | 441 kts | 130° |
| 2026-05-01 14:52 | 12.65737 | 123.28376 | 38972 ft | 447 kts | 130° |
| 2026-05-01 14:53 | 12.59638 | 123.35723 | 38937 ft | 452 kts | 130° |
| 2026-05-01 14:53 | 12.55544 | 123.40654 | 38930 ft | 455 kts | 130° |
| 2026-05-01 14:54 | 12.51450 | 123.45585 | 38928 ft | 457 kts | 130° |
| 2026-05-01 14:54 | 12.47320 | 123.50555 | 38927 ft | 459 kts | 130° |
| 2026-05-01 14:55 | 12.43164 | 123.55544 | 38926 ft | 460 kts | 131° |
| 2026-05-01 14:55 | 12.38671 | 123.60244 | 38927 ft | 461 kts | 138° |
| 2026-05-01 14:56 | 12.33671 | 123.64374 | 38927 ft | 461 kts | 145° |
| 2026-05-01 14:56 | 12.28256 | 123.67860 | 38927 ft | 461 kts | 152° |
| 2026-05-01 14:57 | 12.22624 | 123.70972 | 38927 ft | 461 kts | 152° |
| 2026-05-01 14:57 | 12.14125 | 123.75645 | 38926 ft | 461 kts | 152° |
| 2026-05-01 14:58 | 12.08513 | 123.78736 | 38926 ft | 461 kts | 152° |
| 2026-05-01 14:58 | 12.02828 | 123.81868 | 38926 ft | 461 kts | 152° |
| 2026-05-01 14:59 | 11.97143 | 123.84999 | 38926 ft | 461 kts | 152° |
| 2026-05-01 14:59 | 11.91484 | 123.88114 | 38926 ft | 461 kts | 152° |
| 2026-05-01 15:00 | 11.82988 | 123.92786 | 38937 ft | 462 kts | 152° |
| 2026-05-01 15:01 | 11.77386 | 123.95872 | 38973 ft | 462 kts | 152° |
| 2026-05-01 15:01 | 11.71736 | 123.98981 | 38996 ft | 462 kts | 152° |
| 2026-05-01 15:02 | 11.66073 | 124.02093 | 39007 ft | 462 kts | 152° |
| 2026-05-01 15:02 | 11.60404 | 124.05205 | 39012 ft | 462 kts | 152° |
| 2026-05-01 15:03 | 11.54743 | 124.08312 | 39014 ft | 462 kts | 152° |
| 2026-05-01 15:03 | 11.49089 | 124.11414 | 39015 ft | 462 kts | 152° |
| 2026-05-01 15:04 | 11.43382 | 124.14543 | 39015 ft | 462 kts | 152° |
| 2026-05-01 15:04 | 11.38508 | 124.17214 | 39015 ft | 462 kts | 152° |
| 2026-05-01 15:05 | 11.32848 | 124.20314 | 39015 ft | 462 kts | 152° |
| 2026-05-01 15:05 | 11.27194 | 124.23409 | 39015 ft | 462 kts | 152° |
| 2026-05-01 15:06 | 11.21523 | 124.26512 | 39015 ft | 462 kts | 152° |
| 2026-05-01 15:06 | 11.15841 | 124.29618 | 39015 ft | 462 kts | 152° |
| 2026-05-01 15:07 | 11.10191 | 124.32706 | 39015 ft | 462 kts | 152° |
| 2026-05-01 15:07 | 11.04529 | 124.35789 | 39015 ft | 462 kts | 152° |
| 2026-05-01 15:08 | 11.02259 | 124.37013 | 39015 ft | 462 kts | 152° |
| 2026-05-01 15:08 | 10.98545 | 124.39013 | 39015 ft | 462 kts | 152° |
| 2026-05-01 15:09 | 10.92893 | 124.42054 | 39015 ft | 462 kts | 152° |
| 2026-05-01 15:09 | 10.87223 | 124.45104 | 39015 ft | 462 kts | 152° |
| 2026-05-01 15:10 | 10.81415 | 124.48225 | 39015 ft | 462 kts | 152° |
| 2026-05-01 15:10 | 10.72868 | 124.52844 | 39015 ft | 462 kts | 152° |
| 2026-05-01 15:11 | 10.64352 | 124.57479 | 39015 ft | 462 kts | 152° |
| 2026-05-01 15:12 | 10.58639 | 124.60582 | 39015 ft | 462 kts | 152° |
| 2026-05-01 15:12 | 10.50139 | 124.65194 | 39015 ft | 462 kts | 152° |
| 2026-05-01 15:14 | 10.35885 | 124.72920 | 39015 ft | 462 kts | 152° |
| 2026-05-01 15:14 | 10.27374 | 124.77529 | 39015 ft | 462 kts | 152° |
| 2026-05-01 15:15 | 10.16079 | 124.83627 | 39010 ft | 451 kts | 152° |
| 2026-05-01 15:16 | 10.10464 | 124.86680 | 39015 ft | 454 kts | 152° |
| 2026-05-01 15:18 | 10.06451 | 124.88863 | 39015 ft | 456 kts | 152° |
| 2026-05-01 15:19 | 10.04163 | 124.90104 | 39015 ft | 456 kts | 152° |
| 2026-05-01 15:19 | 10.02415 | 124.91051 | 39015 ft | 457 kts | 152° |
| 2026-05-01 15:20 | 9.93999 | 124.95598 | 39015 ft | 460 kts | 152° |
| 2026-05-01 15:21 | 9.88342 | 124.98648 | 39015 ft | 461 kts | 152° |
| 2026-05-01 15:21 | 9.82830 | 125.01614 | 39015 ft | 462 kts | 152° |
| 2026-05-01 15:22 | 9.74202 | 125.06265 | 39015 ft | 462 kts | 152° |
| 2026-05-01 15:22 | 9.68595 | 125.09287 | 39015 ft | 462 kts | 152° |
| 2026-05-01 15:23 | 9.62915 | 125.12342 | 39015 ft | 462 kts | 152° |
| 2026-05-01 15:23 | 9.57259 | 125.15382 | 39015 ft | 462 kts | 152° |
| 2026-05-01 15:24 | 9.51600 | 125.18406 | 39015 ft | 462 kts | 152° |
| 2026-05-01 15:24 | 9.45923 | 125.21434 | 39015 ft | 462 kts | 152° |
| 2026-05-01 15:25 | 9.40260 | 125.24451 | 39015 ft | 462 kts | 152° |
| 2026-05-01 15:25 | 9.34593 | 125.27469 | 39015 ft | 462 kts | 152° |
| 2026-05-01 15:26 | 9.28918 | 125.30489 | 39015 ft | 462 kts | 152° |
| 2026-05-01 15:26 | 9.23242 | 125.33509 | 39015 ft | 462 kts | 152° |
| 2026-05-01 15:27 | 9.17577 | 125.36521 | 39015 ft | 462 kts | 152° |
| 2026-05-01 15:28 | 9.09071 | 125.41038 | 39014 ft | 462 kts | 152° |
| 2026-05-01 15:28 | 9.06208 | 125.42560 | 38589 ft | 466 kts | 152° |
| 2026-05-01 15:28 | 9.03367 | 125.44068 | 38022 ft | 463 kts | 153° |
| 2026-05-01 15:29 | 8.97536 | 125.46674 | 36651 ft | 461 kts | 160° |
| 2026-05-01 15:29 | 8.94485 | 125.47683 | 35964 ft | 460 kts | 164° |
| 2026-05-01 15:29 | 8.88347 | 125.49051 | 34745 ft | 454 kts | 171° |
| 2026-05-01 15:30 | 8.84829 | 125.49479 | 34052 ft | 451 kts | 174° |
| 2026-05-01 15:31 | 8.72419 | 125.50704 | 31339 ft | 446 kts | 174° |
| 2026-05-01 15:31 | 8.66422 | 125.51309 | 30421 ft | 434 kts | 174° |
| 2026-05-01 15:32 | 8.60407 | 125.51919 | 29528 ft | 423 kts | 174° |
| 2026-05-01 15:32 | 8.54616 | 125.52505 | 28666 ft | 413 kts | 174° |
| 2026-05-01 15:33 | 8.46182 | 125.53297 | 27392 ft | 399 kts | 175° |
| 2026-05-01 15:34 | 8.38012 | 125.54024 | 26129 ft | 388 kts | 175° |